createdAt,value
2023-02-02T00:03:14.126Z,25.9
2023-02-02T00:09:28.593Z,25
2023-02-02T00:15:48.853Z,30.4
2023-02-02T00:21:56.610Z,28.4
2023-02-02T00:28:40.332Z,27.1
2023-02-02T00:48:01.648Z,28.1
2023-02-02T00:54:32.276Z,30
2023-02-02T01:07:22.773Z,28.4
2023-02-02T01:20:10.598Z,26.4
2023-02-02T01:26:16.118Z,24.7
2023-02-02T01:32:41.598Z,27.7
2023-02-02T01:38:46.110Z,30.7
2023-02-02T01:51:28.725Z,29.9
2023-02-02T02:04:15.934Z,23.8
2023-02-02T02:11:34.802Z,22.1
2023-02-02T02:17:35.966Z,31.7
2023-02-02T02:23:41.572Z,25.7
2023-02-02T02:29:51.486Z,25.7
2023-02-02T02:35:42.659Z,27
2023-02-02T02:41:36.060Z,28
2023-02-02T02:47:41.582Z,31.1
2023-02-02T02:53:46.238Z,29.9
2023-02-02T02:59:52.427Z,25.4
2023-02-02T03:12:27.487Z,27.9
2023-02-02T03:25:02.491Z,30.2
2023-02-02T03:31:16.574Z,26.7
2023-02-02T03:37:24.074Z,25.4
2023-02-02T03:43:28.963Z,36.6
2023-02-02T03:49:31.858Z,30.6
2023-02-02T04:01:55.133Z,28.8
2023-02-02T04:08:30.595Z,29.9
2023-02-02T04:14:47.600Z,23.8
2023-02-02T04:21:12.773Z,28.2
2023-02-02T04:27:22.432Z,31.3
2023-02-02T04:33:29.915Z,32.1
2023-02-02T04:46:58.898Z,30.2
2023-02-02T04:53:27.282Z,29.3
2023-02-02T04:59:46.738Z,27.9
2023-02-02T05:05:38.554Z,31.8
2023-02-02T05:12:02.192Z,30.4
2023-02-02T05:18:23.525Z,32.9
2023-02-02T05:30:43.991Z,33.1
2023-02-02T05:36:34.250Z,34.4
2023-02-02T05:42:25.229Z,35.4
2023-02-02T05:48:17.084Z,30.4
2023-02-02T05:54:09.426Z,30.3
2023-02-02T05:59:59.404Z,27.7
2023-02-02T06:05:52.181Z,31.2
2023-02-02T06:11:43.527Z,28
2023-02-02T06:17:34.466Z,30.3
2023-02-02T06:23:26.175Z,27.6
2023-02-02T06:29:15.601Z,25.6
2023-02-02T06:35:06.932Z,24.4
2023-02-02T06:40:59.071Z,32.4
2023-02-02T06:46:50.271Z,25.5
2023-02-02T06:52:41.010Z,25.8
2023-02-02T06:58:31.649Z,24
2023-02-02T07:04:23.775Z,23.7
2023-02-02T07:11:20.309Z,23.5
2023-02-02T07:17:08.511Z,23.7
2023-02-02T07:23:00.541Z,21.8
2023-02-02T07:28:51.728Z,23.4
2023-02-02T07:34:43.347Z,21.8
2023-02-02T07:40:34.352Z,20.1
2023-02-02T07:46:24.676Z,22.3
2023-02-02T07:52:16.234Z,19.8
2023-02-02T07:58:08.238Z,18.4
2023-02-02T08:04:01.453Z,16.6
2023-02-02T08:09:52.863Z,16.7
2023-02-02T08:15:45.559Z,19.5
2023-02-02T08:21:50.424Z,19
2023-02-02T08:27:43.796Z,21.9
2023-02-02T08:33:33.650Z,22.1
2023-02-02T08:39:23.625Z,20.1
2023-02-02T08:46:19.551Z,17.3
2023-02-02T08:52:08.744Z,17.8
2023-02-02T08:58:00.362Z,18.8
2023-02-02T09:03:52.488Z,17.7
2023-02-02T09:09:43.250Z,16.9
2023-02-02T09:15:36.249Z,17.4
2023-02-02T09:21:27.710Z,19.1
2023-02-02T09:27:19.110Z,17.3
2023-02-02T09:33:09.967Z,18.6
2023-02-02T09:38:59.732Z,20.7
2023-02-02T09:44:49.894Z,20.3
2023-02-02T09:50:41.729Z,19.5
2023-02-02T09:56:32.655Z,17.2
2023-02-02T10:02:21.542Z,15.8
2023-02-02T10:08:11.064Z,19.3
2023-02-02T10:14:05.060Z,19.7
2023-02-02T10:19:56.143Z,16.2
2023-02-02T10:25:46.310Z,16.7
2023-02-02T10:31:38.075Z,16.8
2023-02-02T10:37:28.146Z,15.1
2023-02-02T10:43:17.598Z,17.8
2023-02-02T10:49:08.915Z,19.2
2023-02-02T10:55:07.011Z,16.4
2023-02-02T11:00:56.863Z,14.3
2023-02-02T11:06:48.312Z,17.3
2023-02-02T11:12:42.655Z,18.8
2023-02-02T11:18:33.114Z,15.7
2023-02-02T11:24:24.902Z,17.8
2023-02-02T11:30:13.882Z,15.3
2023-02-02T11:36:04.761Z,13.8
2023-02-02T11:41:55.137Z,12.6
2023-02-02T11:47:45.940Z,16.9
2023-02-02T11:53:35.984Z,11.8
2023-02-02T11:59:27.453Z,15.3
2023-02-02T12:05:16.669Z,12.6
2023-02-02T12:11:06.450Z,15.1
2023-02-02T12:16:57.154Z,13.9
2023-02-02T12:22:48.624Z,14.4
2023-02-02T12:28:40.944Z,14.9
2023-02-02T12:34:31.444Z,17.9
2023-02-02T12:40:21.369Z,17.3
2023-02-02T12:46:18.175Z,18.6
2023-02-02T12:52:09.974Z,16.3
2023-02-02T12:58:01.003Z,18.4
2023-02-02T13:03:51.403Z,15.8
2023-02-02T13:09:43.589Z,14.9
2023-02-02T13:15:34.710Z,15.2
2023-02-02T13:21:26.934Z,20.1
2023-02-02T13:27:18.221Z,14.2
2023-02-02T13:33:09.259Z,15.7
2023-02-02T13:39:00.213Z,14.1
2023-02-02T13:44:51.259Z,14.5
2023-02-02T13:50:43.048Z,12
2023-02-02T13:56:35.433Z,13.6
2023-02-02T14:02:26.682Z,13.7
2023-02-02T14:08:16.793Z,15.8
2023-02-02T14:14:08.320Z,10.9
2023-02-02T14:19:58.917Z,14.4
2023-02-02T14:25:49.332Z,11.7
2023-02-02T14:31:40.597Z,12.5
2023-02-02T14:37:31.736Z,11.7
2023-02-02T14:43:22.800Z,12.9
2023-02-02T14:49:12.752Z,11.8
2023-02-02T14:55:04.918Z,12.7
2023-02-02T15:00:55.137Z,13.3
2023-02-02T15:06:46.897Z,12.1
2023-02-02T15:12:37.665Z,13.6
2023-02-02T15:18:29.391Z,9.5
2023-02-02T15:24:22.220Z,10.4
2023-02-02T15:30:12.320Z,12.3
2023-02-02T15:36:06.866Z,11.3
2023-02-02T15:41:56.710Z,8.9
2023-02-02T15:47:47.975Z,10.7
2023-02-02T15:53:38.881Z,13.4
2023-02-02T15:59:29.968Z,10.2
2023-02-02T16:05:19.984Z,12.1
2023-02-02T16:11:10.237Z,10.1
2023-02-02T16:17:00.667Z,12.5
2023-02-02T16:22:52.097Z,7.7
2023-02-02T16:28:45.043Z,10.7
2023-02-02T16:34:40.171Z,9.8
2023-02-02T16:40:30.484Z,7
2023-02-02T16:46:20.736Z,10.5
2023-02-02T16:52:11.787Z,8.9
2023-02-02T16:58:02.092Z,8.4
2023-02-02T17:03:54.549Z,11.5
2023-02-02T17:09:44.850Z,7.6
2023-02-02T17:15:38.924Z,9.4
2023-02-02T17:21:28.712Z,8.3
2023-02-02T17:27:22.838Z,10.4
2023-02-02T17:33:14.194Z,11.1
2023-02-02T17:39:06.115Z,9.8
2023-02-02T17:44:57.277Z,10.5
2023-02-02T17:50:47.321Z,8.6
2023-02-02T17:56:39.644Z,8.2
2023-02-02T18:02:29.878Z,11.2
2023-02-02T18:08:21.127Z,7.9
2023-02-02T18:14:13.923Z,12.3
2023-02-02T18:20:04.435Z,13.4
2023-02-02T18:25:53.599Z,9.9
2023-02-02T18:31:47.193Z,13.1
2023-02-02T18:37:36.745Z,11.8
2023-02-02T18:43:26.813Z,12
2023-02-02T18:49:15.908Z,14
2023-02-02T18:55:07.871Z,13.2
2023-02-02T19:00:59.333Z,10.9
2023-02-02T19:06:48.639Z,13.7
2023-02-02T19:12:37.756Z,14.7
2023-02-02T19:18:28.572Z,14.7
2023-02-02T19:24:19.366Z,16.8
2023-02-02T19:30:11.216Z,14.2
2023-02-02T19:36:01.593Z,14.6
2023-02-02T19:41:52.276Z,14.4
2023-02-02T19:47:42.179Z,15.3
2023-02-02T19:53:31.912Z,15.8
2023-02-02T19:59:22.508Z,13.8
2023-02-02T20:05:12.698Z,14.9
2023-02-02T20:11:04.789Z,13.4
2023-02-02T20:16:55.888Z,14.7
2023-02-02T20:22:47.920Z,14.9
2023-02-02T20:28:39.059Z,16.8
2023-02-02T20:34:29.628Z,12.8
2023-02-02T20:40:20.705Z,15
2023-02-02T20:46:12.502Z,14.7
2023-02-02T20:52:03.651Z,14.5
2023-02-02T20:57:53.204Z,12.8
2023-02-02T21:03:43.790Z,13
2023-02-02T21:09:33.359Z,14.8
2023-02-02T21:15:23.183Z,11.6
2023-02-02T21:21:13.958Z,11.5
2023-02-02T21:27:04.038Z,12.1
2023-02-02T21:32:54.329Z,12.8
2023-02-02T21:38:44.906Z,11.6
2023-02-02T21:44:35.600Z,13.7
2023-02-02T21:50:29.135Z,11.3
2023-02-02T21:56:20.356Z,11.9
2023-02-02T22:02:11.643Z,13.5
2023-02-02T22:08:06.097Z,13.6
2023-02-02T22:13:56.098Z,26.6
2023-02-02T22:19:46.380Z,13.2
2023-02-02T22:25:35.963Z,14.3
2023-02-02T22:31:27.308Z,13.8
2023-02-02T22:37:16.546Z,13.3
2023-02-02T22:43:06.023Z,11.8
2023-02-02T22:48:57.575Z,16.3
2023-02-02T22:54:48.670Z,12.5
2023-02-02T23:00:40.589Z,13.3
2023-02-02T23:06:31.334Z,10.1
2023-02-02T23:12:21.731Z,11.1
2023-02-02T23:18:11.461Z,11.1
2023-02-02T23:25:10.738Z,10.4
2023-02-02T23:31:00.342Z,8.7
2023-02-02T23:36:51.114Z,11.3
2023-02-02T23:42:41.409Z,9.5
2023-02-02T23:48:31.844Z,10.5
2023-02-02T23:54:23.354Z,10.8
